sensor_id;sensor_type;location;lat;lon;timestamp;pressure;altitude;pressure_sealevel;temperature;humidity
59877;BME280;45749;51.140;17.184;2022-08-14T00:00:14;99927.81;;;19.98;98.92
59877;BME280;45749;51.140;17.184;2022-08-14T00:02:38;99920.60;;;19.98;98.86
59877;BME280;45749;51.140;17.184;2022-08-14T00:05:07;99921.11;;;19.98;98.89
59877;BME280;45749;51.140;17.184;2022-08-14T00:07:36;99921.28;;;19.96;98.87
59877;BME280;45749;51.140;17.184;2022-08-14T00:10:06;99916.63;;;19.94;98.85
59877;BME280;45749;51.140;17.184;2022-08-14T00:12:36;99911.13;;;19.91;99.03
59877;BME280;45749;51.140;17.184;2022-08-14T00:15:12;99907.28;;;19.90;99.14
59877;BME280;45749;51.140;17.184;2022-08-14T00:17:46;99905.81;;;19.87;99.21
59877;BME280;45749;51.140;17.184;2022-08-14T00:20:13;99898.98;;;19.85;99.42
59877;BME280;45749;51.140;17.184;2022-08-14T00:22:39;99898.00;;;19.82;99.59
59877;BME280;45749;51.140;17.184;2022-08-14T00:25:07;99894.15;;;19.80;99.56
59877;BME280;45749;51.140;17.184;2022-08-14T00:27:34;99891.30;;;19.82;99.69
59877;BME280;45749;51.140;17.184;2022-08-14T00:30:00;99886.46;;;19.81;99.58
59877;BME280;45749;51.140;17.184;2022-08-14T00:32:27;99882.45;;;19.81;99.68
59877;BME280;45749;51.140;17.184;2022-08-14T00:34:53;99885.44;;;19.82;99.77
59877;BME280;45749;51.140;17.184;2022-08-14T00:37:18;99886.27;;;19.83;99.80
59877;BME280;45749;51.140;17.184;2022-08-14T00:39:45;99883.08;;;19.83;99.73
59877;BME280;45749;51.140;17.184;2022-08-14T00:42:11;99880.23;;;19.85;99.85
59877;BME280;45749;51.140;17.184;2022-08-14T00:44:37;99878.55;;;19.84;99.83
59877;BME280;45749;51.140;17.184;2022-08-14T00:47:04;99883.42;;;19.84;99.80
59877;BME280;45749;51.140;17.184;2022-08-14T00:49:33;99874.88;;;19.85;99.87
59877;BME280;45749;51.140;17.184;2022-08-14T00:52:01;99870.04;;;19.84;99.83
59877;BME280;45749;51.140;17.184;2022-08-14T00:54:27;99874.88;;;19.85;99.93
59877;BME280;45749;51.140;17.184;2022-08-14T00:56:53;99868.50;;;19.86;99.96
59877;BME280;45749;51.140;17.184;2022-08-14T00:59:19;99870.16;;;19.87;99.99
59877;BME280;45749;51.140;17.184;2022-08-14T01:01:45;99867.48;;;19.87;99.83
59877;BME280;45749;51.140;17.184;2022-08-14T01:04:13;99871.02;;;19.87;99.86
59877;BME280;45749;51.140;17.184;2022-08-14T01:06:40;99869.67;;;19.87;99.87
59877;BME280;45749;51.140;17.184;2022-08-14T01:09:06;99865.15;;;19.88;99.86
59877;BME280;45749;51.140;17.184;2022-08-14T01:11:32;99864.64;;;19.88;99.85
59877;BME280;45749;51.140;17.184;2022-08-14T01:13:58;99866.29;;;19.89;99.87
59877;BME280;45749;51.140;17.184;2022-08-14T01:16:26;99870.30;;;19.89;99.81
59877;BME280;45749;51.140;17.184;2022-08-14T01:18:55;99864.95;;;19.89;99.80
59877;BME280;45749;51.140;17.184;2022-08-14T01:21:40;99862.47;;;19.88;99.87
59877;BME280;45749;51.140;17.184;2022-08-14T01:24:07;99865.46;;;19.89;99.92
59877;BME280;45749;51.140;17.184;2022-08-14T01:26:35;99869.67;;;19.87;99.94
59877;BME280;45749;51.140;17.184;2022-08-14T01:29:03;99864.48;;;19.86;99.95
59877;BME280;45749;51.140;17.184;2022-08-14T01:31:33;99861.81;;;19.86;99.99
59877;BME280;45749;51.140;17.184;2022-08-14T01:34:04;99863.66;;;19.85;99.99
59877;BME280;45749;51.140;17.184;2022-08-14T01:36:31;99855.94;;;19.86;100.00
59877;BME280;45749;51.140;17.184;2022-08-14T01:38:59;99860.47;;;19.86;99.96
59877;BME280;45749;51.140;17.184;2022-08-14T01:41:26;99859.13;;;19.86;99.97
59877;BME280;45749;51.140;17.184;2022-08-14T01:43:59;99856.14;;;19.85;99.95
59877;BME280;45749;51.140;17.184;2022-08-14T01:46:27;99858.81;;;19.85;99.93
59877;BME280;45749;51.140;17.184;2022-08-14T01:48:55;99860.16;;;19.85;99.93
59877;BME280;45749;51.140;17.184;2022-08-14T01:51:22;99861.50;;;19.85;99.94
59877;BME280;45749;51.140;17.184;2022-08-14T01:53:51;99862.01;;;19.84;99.91
59877;BME280;45749;51.140;17.184;2022-08-14T01:56:26;99857.48;;;19.85;99.95
59877;BME280;45749;51.140;17.184;2022-08-14T01:59:01;99858.81;;;19.85;99.89
59877;BME280;45749;51.140;17.184;2022-08-14T02:01:29;99854.97;;;19.83;99.80
59877;BME280;45749;51.140;17.184;2022-08-14T02:03:55;99856.50;;;19.82;99.87
59877;BME280;45749;51.140;17.184;2022-08-14T02:06:21;99854.82;;;19.81;99.91
59877;BME280;45749;51.140;17.184;2022-08-14T02:08:48;99858.52;;;19.80;99.90
59877;BME280;45749;51.140;17.184;2022-08-14T02:11:14;99852.85;;;19.79;99.88
59877;BME280;45749;51.140;17.184;2022-08-14T02:13:57;99849.86;;;19.78;99.88
59877;BME280;45749;51.140;17.184;2022-08-14T02:16:27;99847.19;;;19.78;99.86
59877;BME280;45749;51.140;17.184;2022-08-14T02:18:58;99847.19;;;19.78;99.68
59877;BME280;45749;51.140;17.184;2022-08-14T02:21:27;99849.86;;;19.78;99.74
59877;BME280;45749;51.140;17.184;2022-08-14T02:23:56;99843.99;;;19.78;99.67
59877;BME280;45749;51.140;17.184;2022-08-14T02:26:25;99850.70;;;19.74;99.46
59877;BME280;45749;51.140;17.184;2022-08-14T02:28:56;99849.24;;;19.72;99.52
59877;BME280;45749;51.140;17.184;2022-08-14T02:31:26;99846.93;;;19.68;99.44
59877;BME280;45749;51.140;17.184;2022-08-14T02:33:55;99838.23;;;19.66;99.38
59877;BME280;45749;51.140;17.184;2022-08-14T02:36:21;99837.74;;;19.63;99.36
59877;BME280;45749;51.140;17.184;2022-08-14T02:38:47;99831.25;;;19.61;99.32
59877;BME280;45749;51.140;17.184;2022-08-14T02:41:14;99827.72;;;19.61;99.43
59877;BME280;45749;51.140;17.184;2022-08-14T02:43:40;99828.73;;;19.60;99.45
59877;BME280;45749;51.140;17.184;2022-08-14T02:46:08;99823.58;;;19.58;99.41
59877;BME280;45749;51.140;17.184;2022-08-14T02:48:37;99818.91;;;19.56;99.38
59877;BME280;45749;51.140;17.184;2022-08-14T02:51:13;99811.23;;;19.53;99.20
59877;BME280;45749;51.140;17.184;2022-08-14T02:53:41;99809.08;;;19.53;99.18
59877;BME280;45749;51.140;17.184;2022-08-14T02:56:12;99805.89;;;19.53;99.03
59877;BME280;45749;51.140;17.184;2022-08-14T02:58:46;99812.89;;;19.54;98.85
59877;BME280;45749;51.140;17.184;2022-08-14T03:01:12;99806.91;;;19.52;98.70
59877;BME280;45749;51.140;17.184;2022-08-14T03:03:40;99808.92;;;19.50;98.82
59877;BME280;45749;51.140;17.184;2022-08-14T03:06:08;99807.78;;;19.49;98.90
59877;BME280;45749;51.140;17.184;2022-08-14T03:08:36;99812.98;;;19.46;98.97
59877;BME280;45749;51.140;17.184;2022-08-14T03:11:05;99811.86;;;19.40;99.17
59877;BME280;45749;51.140;17.184;2022-08-14T03:13:35;99811.03;;;19.40;99.27
59877;BME280;45749;51.140;17.184;2022-08-14T03:16:06;99806.70;;;19.39;99.29
59877;BME280;45749;51.140;17.184;2022-08-14T03:18:37;99810.87;;;19.37;99.34
59877;BME280;45749;51.140;17.184;2022-08-14T03:21:14;99813.23;;;19.36;99.49
59877;BME280;45749;51.140;17.184;2022-08-14T03:23:42;99805.25;;;19.32;99.44
59877;BME280;45749;51.140;17.184;2022-08-14T03:26:16;99806.44;;;19.30;99.54
59877;BME280;45749;51.140;17.184;2022-08-14T03:28:49;99803.77;;;19.30;99.59
59877;BME280;45749;51.140;17.184;2022-08-14T03:31:15;99805.46;;;19.27;99.64
59877;BME280;45749;51.140;17.184;2022-08-14T03:33:43;99799.12;;;19.24;99.60
59877;BME280;45749;51.140;17.184;2022-08-14T03:36:11;99791.66;;;19.19;99.72
59877;BME280;45749;51.140;17.184;2022-08-14T03:38:40;99795.52;;;19.16;99.89
59877;BME280;45749;51.140;17.184;2022-08-14T03:41:16;99792.53;;;19.15;99.94
59877;BME280;45749;51.140;17.184;2022-08-14T03:43:53;99792.69;;;19.14;99.99
59877;BME280;45749;51.140;17.184;2022-08-14T03:46:18;99787.53;;;19.12;100.00
59877;BME280;45749;51.140;17.184;2022-08-14T03:48:47;99788.88;;;19.12;100.00
59877;BME280;45749;51.140;17.184;2022-08-14T03:51:13;99791.36;;;19.14;100.00
59877;BME280;45749;51.140;17.184;2022-08-14T03:53:43;99791.19;;;19.15;100.00
59877;BME280;45749;51.140;17.184;2022-08-14T03:56:12;99791.82;;;19.17;99.88
59877;BME280;45749;51.140;17.184;2022-08-14T03:58:46;99788.64;;;19.18;99.79
59877;BME280;45749;51.140;17.184;2022-08-14T04:01:15;99785.97;;;19.18;99.72
59877;BME280;45749;51.140;17.184;2022-08-14T04:03:51;99787.14;;;19.19;99.72
59877;BME280;45749;51.140;17.184;2022-08-14T04:06:19;99787.45;;;19.20;99.77
59877;BME280;45749;51.140;17.184;2022-08-14T04:08:47;99783.64;;;19.19;99.82
59877;BME280;45749;51.140;17.184;2022-08-14T04:11:14;99781.08;;;19.21;99.93
59877;BME280;45749;51.140;17.184;2022-08-14T04:13:43;99786.12;;;19.20;100.00
59877;BME280;45749;51.140;17.184;2022-08-14T04:16:16;99783.12;;;19.19;100.00
59877;BME280;45749;51.140;17.184;2022-08-14T04:18:47;99780.96;;;19.19;100.00
59877;BME280;45749;51.140;17.184;2022-08-14T04:21:16;99782.30;;;19.19;100.00
59877;BME280;45749;51.140;17.184;2022-08-14T04:23:43;99787.81;;;19.17;100.00
59877;BME280;45749;51.140;17.184;2022-08-14T04:26:13;99789.50;;;19.18;100.00
59877;BME280;45749;51.140;17.184;2022-08-14T04:28:42;99792.65;;;19.18;100.00
59877;BME280;45749;51.140;17.184;2022-08-14T04:31:08;99796.18;;;19.18;100.00
59877;BME280;45749;51.140;17.184;2022-08-14T04:33:35;99785.80;;;19.19;100.00
59877;BME280;45749;51.140;17.184;2022-08-14T04:36:02;99792.17;;;19.18;100.00
59877;BME280;45749;51.140;17.184;2022-08-14T04:38:29;99788.98;;;19.19;100.00
59877;BME280;45749;51.140;17.184;2022-08-14T04:41:13;99784.78;;;19.20;100.00
59877;BME280;45749;51.140;17.184;2022-08-14T04:43:58;99791.78;;;19.21;100.00
59877;BME280;45749;51.140;17.184;2022-08-14T04:46:24;99791.11;;;19.24;100.00
59877;BME280;45749;51.140;17.184;2022-08-14T04:48:52;99791.94;;;19.24;100.00
59877;BME280;45749;51.140;17.184;2022-08-14T04:51:21;99795.13;;;19.24;100.00
59877;BME280;45749;51.140;17.184;2022-08-14T04:53:53;99787.76;;;19.26;100.00
59877;BME280;45749;51.140;17.184;2022-08-14T04:56:22;99792.75;;;19.29;100.00
59877;BME280;45749;51.140;17.184;2022-08-14T04:58:52;99785.36;;;19.31;100.00
59877;BME280;45749;51.140;17.184;2022-08-14T05:01:23;99788.69;;;19.33;100.00
59877;BME280;45749;51.140;17.184;2022-08-14T05:03:50;99781.33;;;19.35;100.00
59877;BME280;45749;51.140;17.184;2022-08-14T05:06:17;99781.45;;;19.37;100.00
59877;BME280;45749;51.140;17.184;2022-08-14T05:08:43;99774.59;;;19.39;100.00
59877;BME280;45749;51.140;17.184;2022-08-14T05:11:10;99774.23;;;19.42;100.00
59877;BME280;45749;51.140;17.184;2022-08-14T05:13:36;99776.56;;;19.41;100.00
59877;BME280;45749;51.140;17.184;2022-08-14T05:16:04;99776.91;;;19.42;100.00
59877;BME280;45749;51.140;17.184;2022-08-14T05:18:34;99776.40;;;19.42;100.00
59877;BME280;45749;51.140;17.184;2022-08-14T05:21:04;99782.58;;;19.43;100.00
59877;BME280;45749;51.140;17.184;2022-08-14T05:23:32;99777.88;;;19.45;100.00
59877;BME280;45749;51.140;17.184;2022-08-14T05:26:01;99770.48;;;19.47;100.00
59877;BME280;45749;51.140;17.184;2022-08-14T05:28:31;99770.95;;;19.51;100.00
59877;BME280;45749;51.140;17.184;2022-08-14T05:31:01;99771.61;;;19.53;100.00
59877;BME280;45749;51.140;17.184;2022-08-14T05:33:32;99766.41;;;19.55;100.00
59877;BME280;45749;51.140;17.184;2022-08-14T05:36:02;99763.38;;;19.58;100.00
59877;BME280;45749;51.140;17.184;2022-08-14T05:38:32;99767.02;;;19.61;100.00
59877;BME280;45749;51.140;17.184;2022-08-14T05:41:01;99759.65;;;19.63;100.00
59877;BME280;45749;51.140;17.184;2022-08-14T05:43:29;99765.98;;;19.66;100.00
59877;BME280;45749;51.140;17.184;2022-08-14T05:45:58;99763.61;;;19.67;100.00
59877;BME280;45749;51.140;17.184;2022-08-14T05:48:26;99761.28;;;19.68;100.00
59877;BME280;45749;51.140;17.184;2022-08-14T05:50:54;99767.27;;;19.71;100.00
59877;BME280;45749;51.140;17.184;2022-08-14T05:53:21;99760.41;;;19.72;100.00
59877;BME280;45749;51.140;17.184;2022-08-14T05:55:52;99761.55;;;19.74;100.00
59877;BME280;45749;51.140;17.184;2022-08-14T05:58:21;99762.52;;;19.77;100.00
59877;BME280;45749;51.140;17.184;2022-08-14T06:00:48;99758.13;;;19.80;100.00
59877;BME280;45749;51.140;17.184;2022-08-14T06:03:16;99757.77;;;19.83;100.00
59877;BME280;45749;51.140;17.184;2022-08-14T06:05:47;99756.57;;;19.85;100.00
59877;BME280;45749;51.140;17.184;2022-08-14T06:08:29;99757.86;;;19.89;100.00
59877;BME280;45749;51.140;17.184;2022-08-14T06:10:59;99747.60;;;19.93;100.00
59877;BME280;45749;51.140;17.184;2022-08-14T06:13:30;99750.42;;;19.96;100.00
59877;BME280;45749;51.140;17.184;2022-08-14T06:16:00;99751.08;;;19.98;100.00
59877;BME280;45749;51.140;17.184;2022-08-14T06:18:26;99745.36;;;20.01;100.00
59877;BME280;45749;51.140;17.184;2022-08-14T06:20:52;99745.98;;;20.03;100.00
59877;BME280;45749;51.140;17.184;2022-08-14T06:23:19;99749.11;;;20.06;100.00
59877;BME280;45749;51.140;17.184;2022-08-14T06:25:45;99740.91;;;20.08;100.00
59877;BME280;45749;51.140;17.184;2022-08-14T06:28:23;99736.52;;;20.11;100.00
59877;BME280;45749;51.140;17.184;2022-08-14T06:30:47;99743.16;;;20.15;100.00
59877;BME280;45749;51.140;17.184;2022-08-14T06:33:15;99737.11;;;20.17;100.00
59877;BME280;45749;51.140;17.184;2022-08-14T06:35:43;99733.55;;;20.21;100.00
59877;BME280;45749;51.140;17.184;2022-08-14T06:38:16;99731.83;;;20.24;100.00
59877;BME280;45749;51.140;17.184;2022-08-14T06:40:44;99730.94;;;20.27;100.00
59877;BME280;45749;51.140;17.184;2022-08-14T06:43:11;99727.03;;;20.30;100.00
59877;BME280;45749;51.140;17.184;2022-08-14T06:45:41;99729.84;;;20.32;100.00
59877;BME280;45749;51.140;17.184;2022-08-14T06:48:16;99732.46;;;20.36;100.00
59877;BME280;45749;51.140;17.184;2022-08-14T06:50:48;99728.58;;;20.39;100.00
59877;BME280;45749;51.140;17.184;2022-08-14T06:53:15;99728.20;;;20.42;100.00
59877;BME280;45749;51.140;17.184;2022-08-14T06:55:43;99735.05;;;20.45;100.00
59877;BME280;45749;51.140;17.184;2022-08-14T06:58:12;99734.66;;;20.48;100.00
59877;BME280;45749;51.140;17.184;2022-08-14T07:00:39;99728.45;;;20.51;100.00
59877;BME280;45749;51.140;17.184;2022-08-14T07:03:08;99732.91;;;20.55;100.00
59877;BME280;45749;51.140;17.184;2022-08-14T07:05:52;99729.55;;;20.57;100.00
59877;BME280;45749;51.140;17.184;2022-08-14T07:08:23;99731.33;;;20.60;100.00
59877;BME280;45749;51.140;17.184;2022-08-14T07:10:55;99730.23;;;20.66;100.00
59877;BME280;45749;51.140;17.184;2022-08-14T07:13:24;99732.02;;;20.69;100.00
59877;BME280;45749;51.140;17.184;2022-08-14T07:15:54;99731.77;;;20.75;100.00
59877;BME280;45749;51.140;17.184;2022-08-14T07:18:26;99730.35;;;20.79;100.00
59877;BME280;45749;51.140;17.184;2022-08-14T07:20:56;99728.77;;;20.84;100.00
59877;BME280;45749;51.140;17.184;2022-08-14T07:23:24;99732.20;;;20.89;100.00
59877;BME280;45749;51.140;17.184;2022-08-14T07:25:57;99725.97;;;20.93;100.00
59877;BME280;45749;51.140;17.184;2022-08-14T07:28:33;99728.44;;;20.94;100.00
59877;BME280;45749;51.140;17.184;2022-08-14T07:31:02;99725.69;;;20.98;100.00
59877;BME280;45749;51.140;17.184;2022-08-14T07:33:36;99721.92;;;21.03;100.00
59877;BME280;45749;51.140;17.184;2022-08-14T07:36:10;99721.64;;;21.09;100.00
59877;BME280;45749;51.140;17.184;2022-08-14T07:38:38;99717.36;;;21.15;100.00
59877;BME280;45749;51.140;17.184;2022-08-14T07:41:09;99712.25;;;21.20;100.00
59877;BME280;45749;51.140;17.184;2022-08-14T07:43:37;99710.83;;;21.24;100.00
59877;BME280;45749;51.140;17.184;2022-08-14T07:46:04;99712.09;;;21.28;100.00
59877;BME280;45749;51.140;17.184;2022-08-14T07:48:31;99712.52;;;21.31;100.00
59877;BME280;45749;51.140;17.184;2022-08-14T07:50:57;99718.23;;;21.33;100.00
59877;BME280;45749;51.140;17.184;2022-08-14T07:53:23;99712.50;;;21.36;100.00
59877;BME280;45749;51.140;17.184;2022-08-14T07:55:49;99713.24;;;21.40;100.00
59877;BME280;45749;51.140;17.184;2022-08-14T07:58:15;99713.47;;;21.45;100.00
59877;BME280;45749;51.140;17.184;2022-08-14T08:00:42;99711.86;;;21.51;100.00
59877;BME280;45749;51.140;17.184;2022-08-14T08:03:09;99714.97;;;21.54;100.00
59877;BME280;45749;51.140;17.184;2022-08-14T08:05:37;99709.64;;;21.61;100.00
59877;BME280;45749;51.140;17.184;2022-08-14T08:08:05;99707.33;;;21.69;100.00
59877;BME280;45749;51.140;17.184;2022-08-14T08:10:32;99710.23;;;21.74;99.45
59877;BME280;45749;51.140;17.184;2022-08-14T08:13:02;99702.94;;;21.78;99.52
59877;BME280;45749;51.140;17.184;2022-08-14T08:15:44;99694.91;;;21.85;99.48
59877;BME280;45749;51.140;17.184;2022-08-14T08:18:13;99700.92;;;21.94;98.72
59877;BME280;45749;51.140;17.184;2022-08-14T08:20:47;99696.40;;;22.01;99.16
59877;BME280;45749;51.140;17.184;2022-08-14T08:23:16;99691.69;;;22.10;98.58
59877;BME280;45749;51.140;17.184;2022-08-14T08:25:46;99687.43;;;22.22;99.09
59877;BME280;45749;51.140;17.184;2022-08-14T08:28:19;99687.86;;;22.32;99.11
59877;BME280;45749;51.140;17.184;2022-08-14T08:30:55;99687.25;;;22.43;99.09
59877;BME280;45749;51.140;17.184;2022-08-14T08:33:21;99682.64;;;22.55;98.64
59877;BME280;45749;51.140;17.184;2022-08-14T08:35:49;99686.05;;;22.59;97.99
59877;BME280;45749;51.140;17.184;2022-08-14T08:38:22;99678.80;;;22.60;97.36
59877;BME280;45749;51.140;17.184;2022-08-14T08:40:50;99684.18;;;22.60;97.33
59877;BME280;45749;51.140;17.184;2022-08-14T08:43:21;99677.45;;;22.60;96.66
59877;BME280;45749;51.140;17.184;2022-08-14T08:48:51;99676.45;;;22.61;96.57
59877;BME280;45749;51.140;17.184;2022-08-14T08:51:21;99677.45;;;22.60;96.25
59877;BME280;45749;51.140;17.184;2022-08-14T08:54:13;99672.08;;;22.60;96.26
59877;BME280;45749;51.140;17.184;2022-08-14T08:56:45;99665.87;;;22.59;96.29
59877;BME280;45749;51.140;17.184;2022-08-14T08:59:26;99669.20;;;22.61;96.30
59877;BME280;45749;51.140;17.184;2022-08-14T09:02:03;99667.03;;;22.61;95.85
59877;BME280;45749;51.140;17.184;2022-08-14T09:04:41;99670.85;;;22.62;95.57
59877;BME280;45749;51.140;17.184;2022-08-14T09:07:11;99666.52;;;22.61;96.37
59877;BME280;45749;51.140;17.184;2022-08-14T09:09:39;99662.16;;;22.60;96.80
59877;BME280;45749;51.140;17.184;2022-08-14T09:12:17;99659.80;;;22.61;97.33
59877;BME280;45749;51.140;17.184;2022-08-14T09:14:45;99662.27;;;22.63;98.36
59877;BME280;45749;51.140;17.184;2022-08-14T09:17:13;99659.98;;;22.66;97.94
59877;BME280;45749;51.140;17.184;2022-08-14T09:19:40;99653.78;;;22.66;98.30
59877;BME280;45749;51.140;17.184;2022-08-14T09:22:07;99659.47;;;22.67;98.66
59877;BME280;45749;51.140;17.184;2022-08-14T09:24:35;99655.02;;;22.70;99.24
59877;BME280;45749;51.140;17.184;2022-08-14T09:27:01;99659.05;;;22.70;98.03
59877;BME280;45749;51.140;17.184;2022-08-14T09:29:27;99654.72;;;22.69;97.86
59877;BME280;45749;51.140;17.184;2022-08-14T09:31:57;99656.06;;;22.69;98.12
59877;BME280;45749;51.140;17.184;2022-08-14T09:37:38;99658.86;;;22.65;97.33
59877;BME280;45749;51.140;17.184;2022-08-14T09:40:30;99648.30;;;22.63;97.79
59877;BME280;45749;51.140;17.184;2022-08-14T09:46:10;99655.54;;;22.63;98.33
59877;BME280;45749;51.140;17.184;2022-08-14T09:48:37;99651.80;;;22.57;98.55
59877;BME280;45749;51.140;17.184;2022-08-14T09:51:05;99644.25;;;22.50;98.84
59877;BME280;45749;51.140;17.184;2022-08-14T09:53:35;99645.29;;;22.42;98.68
59877;BME280;45749;51.140;17.184;2022-08-14T09:56:07;99643.22;;;22.31;98.64
59877;BME280;45749;51.140;17.184;2022-08-14T09:58:43;99638.66;;;22.25;99.39
59877;BME280;45749;51.140;17.184;2022-08-14T10:01:14;99640.41;;;22.22;99.56
59877;BME280;45749;51.140;17.184;2022-08-14T10:03:54;99633.45;;;22.17;99.83
59877;BME280;45749;51.140;17.184;2022-08-14T10:06:24;99635.51;;;22.15;100.00
59877;BME280;45749;51.140;17.184;2022-08-14T10:08:57;99627.03;;;22.11;100.00
59877;BME280;45749;51.140;17.184;2022-08-14T10:11:31;99628.25;;;22.09;100.00
59877;BME280;45749;51.140;17.184;2022-08-14T10:16:44;99636.08;;;22.04;100.00
59877;BME280;45749;51.140;17.184;2022-08-14T10:19:13;99637.83;;;22.00;100.00
59877;BME280;45749;51.140;17.184;2022-08-14T10:21:43;99637.80;;;21.94;100.00
59877;BME280;45749;51.140;17.184;2022-08-14T10:24:28;99641.11;;;21.89;100.00
59877;BME280;45749;51.140;17.184;2022-08-14T10:26:59;99631.99;;;21.84;100.00
59877;BME280;45749;51.140;17.184;2022-08-14T10:32:00;99640.33;;;21.78;100.00
59877;BME280;45749;51.140;17.184;2022-08-14T10:34:32;99641.06;;;21.76;100.00
59877;BME280;45749;51.140;17.184;2022-08-14T10:37:08;99633.52;;;21.75;100.00
59877;BME280;45749;51.140;17.184;2022-08-14T10:39:34;99629.09;;;21.78;100.00
59877;BME280;45749;51.140;17.184;2022-08-14T10:42:05;99623.73;;;21.78;100.00
59877;BME280;45749;51.140;17.184;2022-08-14T10:44:40;99616.28;;;21.81;100.00
59877;BME280;45749;51.140;17.184;2022-08-14T10:47:09;99618.45;;;21.81;100.00
59877;BME280;45749;51.140;17.184;2022-08-14T10:49:37;99619.78;;;21.81;100.00
59877;BME280;45749;51.140;17.184;2022-08-14T10:52:18;99621.13;;;21.81;100.00
59877;BME280;45749;51.140;17.184;2022-08-14T10:54:43;99616.61;;;21.82;100.00
59877;BME280;45749;51.140;17.184;2022-08-14T10:57:24;99618.56;;;21.84;100.00
59877;BME280;45749;51.140;17.184;2022-08-14T10:59:59;99616.00;;;21.86;100.00
59877;BME280;45749;51.140;17.184;2022-08-14T11:02:36;99616.00;;;21.86;100.00
59877;BME280;45749;51.140;17.184;2022-08-14T11:05:16;99619.39;;;21.84;100.00
59877;BME280;45749;51.140;17.184;2022-08-14T11:07:57;99615.45;;;21.80;100.00
59877;BME280;45749;51.140;17.184;2022-08-14T11:13:24;99616.47;;;21.72;100.00
59877;BME280;45749;51.140;17.184;2022-08-14T11:15:55;99633.95;;;21.62;100.00
59877;BME280;45749;51.140;17.184;2022-08-14T11:18:22;99634.36;;;21.52;100.00
59877;BME280;45749;51.140;17.184;2022-08-14T11:20:50;99635.45;;;21.47;100.00
59877;BME280;45749;51.140;17.184;2022-08-14T11:23:43;99633.68;;;21.43;100.00
59877;BME280;45749;51.140;17.184;2022-08-14T11:25:55;99625.20;;;21.40;100.00
59877;BME280;45749;51.140;17.184;2022-08-14T11:28:25;99622.09;;;21.36;100.00
59877;BME280;45749;51.140;17.184;2022-08-14T11:30:53;99616.45;;;21.31;100.00
59877;BME280;45749;51.140;17.184;2022-08-14T11:33:28;99623.23;;;21.27;100.00
59877;BME280;45749;51.140;17.184;2022-08-14T11:35:54;99619.61;;;21.24;100.00
59877;BME280;45749;51.140;17.184;2022-08-14T11:38:21;99617.84;;;21.20;100.00
59877;BME280;45749;51.140;17.184;2022-08-14T11:40:47;99613.99;;;21.19;100.00
59877;BME280;45749;51.140;17.184;2022-08-14T11:43:14;99611.83;;;21.18;100.00
59877;BME280;45749;51.140;17.184;2022-08-14T11:45:46;99617.41;;;21.17;100.00
59877;BME280;45749;51.140;17.184;2022-08-14T11:50:49;99609.48;;;21.19;100.00
59877;BME280;45749;51.140;17.184;2022-08-14T11:53:26;99610.34;;;21.26;100.00
59877;BME280;45749;51.140;17.184;2022-08-14T11:56:00;99601.69;;;21.31;100.00
59877;BME280;45749;51.140;17.184;2022-08-14T11:58:31;99597.84;;;21.40;100.00
59877;BME280;45749;51.140;17.184;2022-08-14T12:01:07;99596.26;;;21.52;100.00
59877;BME280;45749;51.140;17.184;2022-08-14T12:03:39;99588.16;;;21.70;100.00
59877;BME280;45749;51.140;17.184;2022-08-14T12:06:14;99583.52;;;21.74;100.00
59877;BME280;45749;51.140;17.184;2022-08-14T12:08:42;99578.50;;;21.82;100.00
59877;BME280;45749;51.140;17.184;2022-08-14T12:11:13;99585.94;;;21.87;100.00
59877;BME280;45749;51.140;17.184;2022-08-14T12:13:41;99587.09;;;21.88;100.00
59877;BME280;45749;51.140;17.184;2022-08-14T12:16:12;99588.00;;;21.91;100.00
59877;BME280;45749;51.140;17.184;2022-08-14T12:18:44;99584.30;;;21.92;100.00
59877;BME280;45749;51.140;17.184;2022-08-14T12:24:03;99577.48;;;21.90;100.00
59877;BME280;45749;51.140;17.184;2022-08-14T12:26:30;99569.53;;;21.92;100.00
59877;BME280;45749;51.140;17.184;2022-08-14T12:29:08;99565.83;;;22.07;100.00
59877;BME280;45749;51.140;17.184;2022-08-14T12:31:37;99567.11;;;22.17;100.00
59877;BME280;45749;51.140;17.184;2022-08-14T12:34:07;99564.35;;;22.28;100.00
59877;BME280;45749;51.140;17.184;2022-08-14T12:36:34;99563.31;;;22.36;100.00
59877;BME280;45749;51.140;17.184;2022-08-14T12:39:02;99562.79;;;22.43;100.00
59877;BME280;45749;51.140;17.184;2022-08-14T12:41:31;99557.41;;;22.43;100.00
59877;BME280;45749;51.140;17.184;2022-08-14T12:44:04;99558.16;;;22.34;100.00
59877;BME280;45749;51.140;17.184;2022-08-14T12:46:34;99564.77;;;22.25;100.00
59877;BME280;45749;51.140;17.184;2022-08-14T12:49:12;99566.09;;;22.18;100.00
59877;BME280;45749;51.140;17.184;2022-08-14T12:51:37;99568.52;;;22.07;100.00
59877;BME280;45749;51.140;17.184;2022-08-14T12:54:14;99569.95;;;21.96;100.00
59877;BME280;45749;51.140;17.184;2022-08-14T12:56:42;99577.36;;;21.87;100.00
59877;BME280;45749;51.140;17.184;2022-08-14T12:59:09;99582.01;;;21.83;100.00
59877;BME280;45749;51.140;17.184;2022-08-14T13:01:35;99578.16;;;21.81;100.00
59877;BME280;45749;51.140;17.184;2022-08-14T13:04:14;99570.52;;;21.78;100.00
59877;BME280;45749;51.140;17.184;2022-08-14T13:06:43;99563.50;;;21.77;100.00
59877;BME280;45749;51.140;17.184;2022-08-14T13:09:13;99565.34;;;21.70;100.00
59877;BME280;45749;51.140;17.184;2022-08-14T13:11:45;99559.53;;;21.60;100.00
59877;BME280;45749;51.140;17.184;2022-08-14T13:14:18;99548.65;;;21.50;100.00
59877;BME280;45749;51.140;17.184;2022-08-14T13:16:53;99555.76;;;21.47;100.00
59877;BME280;45749;51.140;17.184;2022-08-14T13:19:22;99550.48;;;21.43;100.00
59877;BME280;45749;51.140;17.184;2022-08-14T13:21:51;99535.42;;;21.42;100.00